sensor_id;sensor_type;location;lat;lon;timestamp;temperature;humidity
1956;DHT22;978;48.314;11.562;2022-11-12T00:01:54;22.40;76.20
1956;DHT22;978;48.314;11.562;2022-11-12T00:04:21;22.40;76.20
1956;DHT22;978;48.314;11.562;2022-11-12T00:06:47;22.40;76.20
1956;DHT22;978;48.314;11.562;2022-11-12T00:09:15;22.40;76.20
1956;DHT22;978;48.314;11.562;2022-11-12T00:11:42;22.40;76.20
1956;DHT22;978;48.314;11.562;2022-11-12T00:14:09;22.40;76.10
1956;DHT22;978;48.314;11.562;2022-11-12T00:16:35;22.40;76.20
1956;DHT22;978;48.314;11.562;2022-11-12T00:19:02;22.40;76.20
1956;DHT22;978;48.314;11.562;2022-11-12T00:21:29;22.40;76.20
1956;DHT22;978;48.314;11.562;2022-11-12T00:23:56;22.40;76.20
1956;DHT22;978;48.314;11.562;2022-11-12T00:26:24;22.40;76.10
1956;DHT22;978;48.314;11.562;2022-11-12T00:28:50;22.40;76.20
1956;DHT22;978;48.314;11.562;2022-11-12T00:31:17;22.50;76.30
1956;DHT22;978;48.314;11.562;2022-11-12T00:33:44;22.40;76.20
1956;DHT22;978;48.314;11.562;2022-11-12T00:36:11;22.40;76.20
1956;DHT22;978;48.314;11.562;2022-11-12T00:38:37;22.40;76.20
1956;DHT22;978;48.314;11.562;2022-11-12T00:41:04;22.40;76.20
1956;DHT22;978;48.314;11.562;2022-11-12T00:43:32;22.40;76.20
1956;DHT22;978;48.314;11.562;2022-11-12T00:45:59;22.40;76.20
1956;DHT22;978;48.314;11.562;2022-11-12T00:48:26;22.40;76.30
1956;DHT22;978;48.314;11.562;2022-11-12T00:50:59;22.40;76.30
1956;DHT22;978;48.314;11.562;2022-11-12T00:53:26;22.40;76.20
1956;DHT22;978;48.314;11.562;2022-11-12T00:55:52;22.40;76.30
1956;DHT22;978;48.314;11.562;2022-11-12T00:58:19;22.40;76.30
1956;DHT22;978;48.314;11.562;2022-11-12T01:00:47;22.40;76.20
1956;DHT22;978;48.314;11.562;2022-11-12T01:03:14;22.40;76.20
1956;DHT22;978;48.314;11.562;2022-11-12T01:05:41;22.40;76.40
1956;DHT22;978;48.314;11.562;2022-11-12T01:08:07;22.40;76.30
1956;DHT22;978;48.314;11.562;2022-11-12T01:10:34;22.40;76.30
1956;DHT22;978;48.314;11.562;2022-11-12T01:13:01;22.40;76.30
1956;DHT22;978;48.314;11.562;2022-11-12T01:15:28;22.40;76.30
1956;DHT22;978;48.314;11.562;2022-11-12T01:17:56;22.40;76.30
1956;DHT22;978;48.314;11.562;2022-11-12T01:20:23;22.40;76.30
1956;DHT22;978;48.314;11.562;2022-11-12T01:22:49;22.40;76.30
1956;DHT22;978;48.314;11.562;2022-11-12T01:25:16;22.40;76.50
1956;DHT22;978;48.314;11.562;2022-11-12T01:27:43;22.40;76.20
1956;DHT22;978;48.314;11.562;2022-11-12T01:30:10;22.40;76.40
1956;DHT22;978;48.314;11.562;2022-11-12T01:32:37;22.40;76.40
1956;DHT22;978;48.314;11.562;2022-11-12T01:35:05;22.40;76.40
1956;DHT22;978;48.314;11.562;2022-11-12T01:37:32;22.40;76.40
1956;DHT22;978;48.314;11.562;2022-11-12T01:40:00;22.40;76.40
1956;DHT22;978;48.314;11.562;2022-11-12T01:42:29;22.40;76.30
1956;DHT22;978;48.314;11.562;2022-11-12T01:44:56;22.40;76.40
1956;DHT22;978;48.314;11.562;2022-11-12T01:47:25;22.40;76.40
1956;DHT22;978;48.314;11.562;2022-11-12T01:49:56;22.40;76.30
1956;DHT22;978;48.314;11.562;2022-11-12T01:52:29;22.40;76.30
1956;DHT22;978;48.314;11.562;2022-11-12T01:55:01;22.40;76.30
1956;DHT22;978;48.314;11.562;2022-11-12T01:57:30;22.40;76.30
1956;DHT22;978;48.314;11.562;2022-11-12T02:00:04;22.40;76.40
1956;DHT22;978;48.314;11.562;2022-11-12T02:02:32;22.40;76.30
1956;DHT22;978;48.314;11.562;2022-11-12T02:04:59;22.40;76.30
1956;DHT22;978;48.314;11.562;2022-11-12T02:07:30;22.40;76.40
1956;DHT22;978;48.314;11.562;2022-11-12T02:09:58;22.40;76.30
1956;DHT22;978;48.314;11.562;2022-11-12T02:12:25;22.40;76.20
1956;DHT22;978;48.314;11.562;2022-11-12T02:15:09;22.40;76.30
1956;DHT22;978;48.314;11.562;2022-11-12T02:17:36;22.40;76.30
1956;DHT22;978;48.314;11.562;2022-11-12T02:20:03;22.40;76.30
1956;DHT22;978;48.314;11.562;2022-11-12T02:22:32;22.40;76.30
1956;DHT22;978;48.314;11.562;2022-11-12T02:24:58;22.40;76.30
1956;DHT22;978;48.314;11.562;2022-11-12T02:27:26;22.40;76.30
1956;DHT22;978;48.314;11.562;2022-11-12T02:29:53;22.50;76.40
1956;DHT22;978;48.314;11.562;2022-11-12T02:32:19;22.50;76.30
1956;DHT22;978;48.314;11.562;2022-11-12T02:34:46;22.50;76.40
1956;DHT22;978;48.314;11.562;2022-11-12T02:37:13;22.40;76.30
1956;DHT22;978;48.314;11.562;2022-11-12T02:39:41;22.40;76.30
1956;DHT22;978;48.314;11.562;2022-11-12T02:42:08;22.40;76.30
1956;DHT22;978;48.314;11.562;2022-11-12T02:44:34;22.40;76.30
1956;DHT22;978;48.314;11.562;2022-11-12T02:47:01;22.40;76.20
1956;DHT22;978;48.314;11.562;2022-11-12T02:49:28;22.40;76.20
1956;DHT22;978;48.314;11.562;2022-11-12T02:51:55;22.50;76.30
1956;DHT22;978;48.314;11.562;2022-11-12T02:54:21;22.40;76.30
1956;DHT22;978;48.314;11.562;2022-11-12T02:56:50;22.40;76.30
1956;DHT22;978;48.314;11.562;2022-11-12T02:59:16;22.40;76.20
1956;DHT22;978;48.314;11.562;2022-11-12T03:01:43;22.40;76.30
1956;DHT22;978;48.314;11.562;2022-11-12T03:04:10;22.40;76.40
1956;DHT22;978;48.314;11.562;2022-11-12T03:06:36;22.40;76.40
1956;DHT22;978;48.314;11.562;2022-11-12T03:09:04;22.40;76.40
1956;DHT22;978;48.314;11.562;2022-11-12T03:11:30;22.40;76.30
1956;DHT22;978;48.314;11.562;2022-11-12T03:13:59;22.40;76.30
1956;DHT22;978;48.314;11.562;2022-11-12T03:16:26;22.40;76.30
1956;DHT22;978;48.314;11.562;2022-11-12T03:18:53;22.40;76.30
1956;DHT22;978;48.314;11.562;2022-11-12T03:21:20;22.40;76.30
1956;DHT22;978;48.314;11.562;2022-11-12T03:23:46;22.40;76.30
1956;DHT22;978;48.314;11.562;2022-11-12T03:26:13;22.50;76.40
1956;DHT22;978;48.314;11.562;2022-11-12T03:28:40;22.40;76.30
1956;DHT22;978;48.314;11.562;2022-11-12T03:31:08;22.40;76.90
1956;DHT22;978;48.314;11.562;2022-11-12T03:33:36;22.40;76.20
1956;DHT22;978;48.314;11.562;2022-11-12T03:36:03;22.40;76.20
1956;DHT22;978;48.314;11.562;2022-11-12T03:38:30;22.40;76.30
1956;DHT22;978;48.314;11.562;2022-11-12T03:40:57;22.40;76.30
1956;DHT22;978;48.314;11.562;2022-11-12T03:43:24;22.40;76.20
1956;DHT22;978;48.314;11.562;2022-11-12T03:45:50;22.40;76.30
1956;DHT22;978;48.314;11.562;2022-11-12T03:48:19;22.40;76.30
1956;DHT22;978;48.314;11.562;2022-11-12T03:50:45;22.40;76.30
1956;DHT22;978;48.314;11.562;2022-11-12T03:53:12;22.40;76.30
1956;DHT22;978;48.314;11.562;2022-11-12T03:55:39;22.40;76.40
1956;DHT22;978;48.314;11.562;2022-11-12T03:58:06;22.40;76.30
1956;DHT22;978;48.314;11.562;2022-11-12T04:00:33;22.40;76.40
1956;DHT22;978;48.314;11.562;2022-11-12T04:02:59;22.40;76.30
1956;DHT22;978;48.314;11.562;2022-11-12T04:05:27;22.40;76.30
1956;DHT22;978;48.314;11.562;2022-11-12T04:08:13;22.40;76.30
1956;DHT22;978;48.314;11.562;2022-11-12T04:10:58;22.40;76.30
1956;DHT22;978;48.314;11.562;2022-11-12T04:13:25;22.40;76.30
1956;DHT22;978;48.314;11.562;2022-11-12T04:15:59;22.40;76.30
1956;DHT22;978;48.314;11.562;2022-11-12T04:18:45;22.40;76.40
1956;DHT22;978;48.314;11.562;2022-11-12T04:21:34;22.40;76.20
1956;DHT22;978;48.314;11.562;2022-11-12T04:24:21;22.40;76.20
1956;DHT22;978;48.314;11.562;2022-11-12T04:27:07;22.40;76.30
1956;DHT22;978;48.314;11.562;2022-11-12T04:29:34;22.50;76.40
1956;DHT22;978;48.314;11.562;2022-11-12T04:32:19;22.40;76.30
1956;DHT22;978;48.314;11.562;2022-11-12T04:34:45;22.40;76.30
1956;DHT22;978;48.314;11.562;2022-11-12T04:37:14;22.40;76.30
1956;DHT22;978;48.314;11.562;2022-11-12T04:39:40;22.40;76.30
1956;DHT22;978;48.314;11.562;2022-11-12T04:42:08;22.40;76.30
1956;DHT22;978;48.314;11.562;2022-11-12T04:44:53;22.40;76.30
1956;DHT22;978;48.314;11.562;2022-11-12T04:47:32;22.40;76.30
1956;DHT22;978;48.314;11.562;2022-11-12T04:50:00;22.40;76.20
1956;DHT22;978;48.314;11.562;2022-11-12T04:52:29;22.40;76.30
1956;DHT22;978;48.314;11.562;2022-11-12T04:54:56;22.40;76.30
1956;DHT22;978;48.314;11.562;2022-11-12T04:57:24;22.40;76.20
1956;DHT22;978;48.314;11.562;2022-11-12T04:59:50;22.50;76.20
1956;DHT22;978;48.314;11.562;2022-11-12T05:02:17;22.40;76.20
1956;DHT22;978;48.314;11.562;2022-11-12T05:04:44;22.40;76.20
1956;DHT22;978;48.314;11.562;2022-11-12T05:07:11;22.40;76.30
1956;DHT22;978;48.314;11.562;2022-11-12T05:09:40;22.40;76.20
1956;DHT22;978;48.314;11.562;2022-11-12T05:12:08;22.40;76.20
1956;DHT22;978;48.314;11.562;2022-11-12T05:14:35;22.50;76.30
1956;DHT22;978;48.314;11.562;2022-11-12T05:17:01;22.40;76.20
1956;DHT22;978;48.314;11.562;2022-11-12T05:19:28;22.40;76.30
1956;DHT22;978;48.314;11.562;2022-11-12T05:21:55;22.40;76.30
1956;DHT22;978;48.314;11.562;2022-11-12T05:24:30;22.40;76.80
1956;DHT22;978;48.314;11.562;2022-11-12T05:26:59;22.40;76.30
1956;DHT22;978;48.314;11.562;2022-11-12T05:29:25;22.40;76.30
1956;DHT22;978;48.314;11.562;2022-11-12T05:31:52;22.40;76.20
1956;DHT22;978;48.314;11.562;2022-11-12T05:34:20;22.40;76.20
1956;DHT22;978;48.314;11.562;2022-11-12T05:36:47;22.40;76.20
1956;DHT22;978;48.314;11.562;2022-11-12T05:39:13;22.40;76.20
1956;DHT22;978;48.314;11.562;2022-11-12T05:41:40;22.50;76.20
1956;DHT22;978;48.314;11.562;2022-11-12T05:44:08;22.50;76.20
1956;DHT22;978;48.314;11.562;2022-11-12T05:46:35;22.40;76.20
1956;DHT22;978;48.314;11.562;2022-11-12T05:49:02;22.40;76.20
1956;DHT22;978;48.314;11.562;2022-11-12T05:51:29;22.40;76.20
1956;DHT22;978;48.314;11.562;2022-11-12T05:53:56;22.40;76.20
1956;DHT22;978;48.314;11.562;2022-11-12T05:56:22;22.40;76.20
1956;DHT22;978;48.314;11.562;2022-11-12T05:58:49;22.40;76.20
1956;DHT22;978;48.314;11.562;2022-11-12T06:01:18;22.40;76.20
1956;DHT22;978;48.314;11.562;2022-11-12T06:03:44;22.40;76.20
1956;DHT22;978;48.314;11.562;2022-11-12T06:06:11;22.40;76.20
1956;DHT22;978;48.314;11.562;2022-11-12T06:08:38;22.40;76.20
1956;DHT22;978;48.314;11.562;2022-11-12T06:11:05;22.40;76.20
1956;DHT22;978;48.314;11.562;2022-11-12T06:13:32;22.40;76.20
1956;DHT22;978;48.314;11.562;2022-11-12T06:15:59;22.40;76.10
1956;DHT22;978;48.314;11.562;2022-11-12T06:18:27;22.40;76.20
1956;DHT22;978;48.314;11.562;2022-11-12T06:20:56;22.40;76.20
1956;DHT22;978;48.314;11.562;2022-11-12T06:23:43;22.40;76.20
1956;DHT22;978;48.314;11.562;2022-11-12T06:26:10;22.40;76.20
1956;DHT22;978;48.314;11.562;2022-11-12T06:28:37;22.40;76.20
1956;DHT22;978;48.314;11.562;2022-11-12T06:31:04;22.40;76.20
1956;DHT22;978;48.314;11.562;2022-11-12T06:33:32;22.40;76.30
1956;DHT22;978;48.314;11.562;2022-11-12T06:36:00;22.40;76.40
1956;DHT22;978;48.314;11.562;2022-11-12T06:38:28;22.40;76.60
1956;DHT22;978;48.314;11.562;2022-11-12T06:40:57;22.40;76.50
1956;DHT22;978;48.314;11.562;2022-11-12T06:43:24;22.40;76.50
1956;DHT22;978;48.314;11.562;2022-11-12T06:45:51;22.40;76.30
1956;DHT22;978;48.314;11.562;2022-11-12T06:48:18;22.40;76.20
1956;DHT22;978;48.314;11.562;2022-11-12T06:50:46;22.40;76.50
1956;DHT22;978;48.314;11.562;2022-11-12T06:53:13;22.40;76.50
1956;DHT22;978;48.314;11.562;2022-11-12T06:55:41;22.40;76.50
1956;DHT22;978;48.314;11.562;2022-11-12T06:58:08;22.40;76.40
1956;DHT22;978;48.314;11.562;2022-11-12T07:00:34;22.40;76.40
1956;DHT22;978;48.314;11.562;2022-11-12T07:03:05;22.40;76.30
1956;DHT22;978;48.314;11.562;2022-11-12T07:05:36;22.40;76.20
1956;DHT22;978;48.314;11.562;2022-11-12T07:08:05;22.40;76.10
1956;DHT22;978;48.314;11.562;2022-11-12T07:10:32;22.40;76.00
1956;DHT22;978;48.314;11.562;2022-11-12T07:12:59;22.40;75.40
1956;DHT22;978;48.314;11.562;2022-11-12T07:15:25;22.40;75.20
1956;DHT22;978;48.314;11.562;2022-11-12T07:17:52;22.40;74.70
1956;DHT22;978;48.314;11.562;2022-11-12T07:20:19;22.40;74.60
1956;DHT22;978;48.314;11.562;2022-11-12T07:22:46;22.40;74.60
1956;DHT22;978;48.314;11.562;2022-11-12T07:25:15;22.40;74.70
1956;DHT22;978;48.314;11.562;2022-11-12T07:27:42;22.40;75.10
1956;DHT22;978;48.314;11.562;2022-11-12T07:30:09;22.40;75.10
1956;DHT22;978;48.314;11.562;2022-11-12T07:32:36;22.40;75.00
1956;DHT22;978;48.314;11.562;2022-11-12T07:35:03;22.40;74.80
1956;DHT22;978;48.314;11.562;2022-11-12T07:37:30;22.40;74.70
1956;DHT22;978;48.314;11.562;2022-11-12T07:39:59;22.40;74.50
1956;DHT22;978;48.314;11.562;2022-11-12T07:42:32;22.40;74.50
1956;DHT22;978;48.314;11.562;2022-11-12T07:45:00;22.40;74.20
1956;DHT22;978;48.314;11.562;2022-11-12T07:47:27;22.40;74.10
1956;DHT22;978;48.314;11.562;2022-11-12T07:49:53;22.40;74.00
1956;DHT22;978;48.314;11.562;2022-11-12T07:52:20;22.40;74.00
1956;DHT22;978;48.314;11.562;2022-11-12T07:54:48;22.40;74.00
1956;DHT22;978;48.314;11.562;2022-11-12T07:57:17;22.40;73.90
1956;DHT22;978;48.314;11.562;2022-11-12T07:59:51;22.40;73.70
1956;DHT22;978;48.314;11.562;2022-11-12T08:02:21;22.40;69.80
1956;DHT22;978;48.314;11.562;2022-11-12T08:04:49;22.30;70.00
1956;DHT22;978;48.314;11.562;2022-11-12T08:07:16;22.30;71.50
1956;DHT22;978;48.314;11.562;2022-11-12T08:09:44;22.30;72.00
1956;DHT22;978;48.314;11.562;2022-11-12T08:12:14;22.30;72.50
1956;DHT22;978;48.314;11.562;2022-11-12T08:14:41;22.40;72.80
1956;DHT22;978;48.314;11.562;2022-11-12T08:17:09;22.30;72.80
1956;DHT22;978;48.314;11.562;2022-11-12T08:19:37;22.40;71.30
1956;DHT22;978;48.314;11.562;2022-11-12T08:22:06;22.40;72.30
1956;DHT22;978;48.314;11.562;2022-11-12T08:24:32;22.40;72.50
1956;DHT22;978;48.314;11.562;2022-11-12T08:26:59;22.40;71.40
1956;DHT22;978;48.314;11.562;2022-11-12T08:29:26;22.40;71.40
1956;DHT22;978;48.314;11.562;2022-11-12T08:31:52;22.40;71.50
1956;DHT22;978;48.314;11.562;2022-11-12T08:34:21;22.40;71.80
1956;DHT22;978;48.314;11.562;2022-11-12T08:36:48;22.40;72.50
1956;DHT22;978;48.314;11.562;2022-11-12T08:39:14;22.40;72.50
1956;DHT22;978;48.314;11.562;2022-11-12T08:41:41;22.40;72.30
1956;DHT22;978;48.314;11.562;2022-11-12T08:44:09;22.40;72.10
1956;DHT22;978;48.314;11.562;2022-11-12T08:46:36;22.40;72.00
1956;DHT22;978;48.314;11.562;2022-11-12T08:49:03;22.40;71.90
1956;DHT22;978;48.314;11.562;2022-11-12T08:51:31;22.40;71.80
1956;DHT22;978;48.314;11.562;2022-11-12T08:53:58;22.40;71.80
1956;DHT22;978;48.314;11.562;2022-11-12T08:56:25;22.40;71.80
1956;DHT22;978;48.314;11.562;2022-11-12T08:58:51;22.40;71.60
1956;DHT22;978;48.314;11.562;2022-11-12T09:01:19;22.40;71.60
1956;DHT22;978;48.314;11.562;2022-11-12T09:03:48;22.40;71.60
1956;DHT22;978;48.314;11.562;2022-11-12T09:06:16;22.40;71.60
1956;DHT22;978;48.314;11.562;2022-11-12T09:08:44;22.40;71.60
1956;DHT22;978;48.314;11.562;2022-11-12T09:11:11;22.40;71.50
1956;DHT22;978;48.314;11.562;2022-11-12T09:13:39;22.40;71.40
1956;DHT22;978;48.314;11.562;2022-11-12T09:16:07;22.40;71.40
1956;DHT22;978;48.314;11.562;2022-11-12T09:18:35;22.40;71.40
1956;DHT22;978;48.314;11.562;2022-11-12T09:21:03;22.40;71.40
1956;DHT22;978;48.314;11.562;2022-11-12T09:23:30;22.40;71.30
1956;DHT22;978;48.314;11.562;2022-11-12T09:26:03;22.40;71.20
1956;DHT22;978;48.314;11.562;2022-11-12T09:28:31;22.40;71.20
1956;DHT22;978;48.314;11.562;2022-11-12T09:30:58;22.40;71.20
1956;DHT22;978;48.314;11.562;2022-11-12T09:33:28;22.40;71.20
1956;DHT22;978;48.314;11.562;2022-11-12T09:35:55;22.40;71.10
1956;DHT22;978;48.314;11.562;2022-11-12T09:38:25;22.40;71.10
1956;DHT22;978;48.314;11.562;2022-11-12T09:41:13;22.40;71.10
1956;DHT22;978;48.314;11.562;2022-11-12T09:43:46;22.40;71.00
1956;DHT22;978;48.314;11.562;2022-11-12T09:46:28;22.40;71.00
1956;DHT22;978;48.314;11.562;2022-11-12T09:49:01;22.40;71.00
1956;DHT22;978;48.314;11.562;2022-11-12T09:51:33;22.40;70.90
1956;DHT22;978;48.314;11.562;2022-11-12T09:54:04;22.40;71.00
1956;DHT22;978;48.314;11.562;2022-11-12T09:56:33;22.40;70.90
1956;DHT22;978;48.314;11.562;2022-11-12T09:59:00;22.40;70.90
1956;DHT22;978;48.314;11.562;2022-11-12T10:01:40;22.40;70.90
1956;DHT22;978;48.314;11.562;2022-11-12T10:04:27;22.40;70.90
1956;DHT22;978;48.314;11.562;2022-11-12T10:07:05;22.40;70.90
1956;DHT22;978;48.314;11.562;2022-11-12T10:09:36;22.40;70.90
1956;DHT22;978;48.314;11.562;2022-11-12T10:12:17;22.40;70.90
1956;DHT22;978;48.314;11.562;2022-11-12T10:15:31;22.40;70.80
1956;DHT22;978;48.314;11.562;2022-11-12T10:18:28;22.40;70.90
1956;DHT22;978;48.314;11.562;2022-11-12T10:20:58;22.40;70.80
1956;DHT22;978;48.314;11.562;2022-11-12T10:23:28;22.40;70.90
1956;DHT22;978;48.314;11.562;2022-11-12T10:25:59;22.40;70.80
1956;DHT22;978;48.314;11.562;2022-11-12T10:28:33;22.40;70.80
1956;DHT22;978;48.314;11.562;2022-11-12T10:31:09;22.40;70.70
1956;DHT22;978;48.314;11.562;2022-11-12T10:33:37;22.40;70.70
1956;DHT22;978;48.314;11.562;2022-11-12T10:36:32;22.40;70.80
1956;DHT22;978;48.314;11.562;2022-11-12T10:38:59;22.40;70.70
1956;DHT22;978;48.314;11.562;2022-11-12T10:41:28;22.40;70.60
1956;DHT22;978;48.314;11.562;2022-11-12T10:43:58;22.40;70.60
1956;DHT22;978;48.314;11.562;2022-11-12T10:46:27;22.40;70.70
1956;DHT22;978;48.314;11.562;2022-11-12T10:48:59;22.40;70.70
1956;DHT22;978;48.314;11.562;2022-11-12T10:51:30;22.40;70.60
1956;DHT22;978;48.314;11.562;2022-11-12T10:53:57;22.40;70.60
1956;DHT22;978;48.314;11.562;2022-11-12T10:56:27;22.40;70.60
1956;DHT22;978;48.314;11.562;2022-11-12T10:59:14;22.40;70.60
1956;DHT22;978;48.314;11.562;2022-11-12T11:01:42;22.40;70.50
1956;DHT22;978;48.314;11.562;2022-11-12T11:04:21;22.40;70.50
1956;DHT22;978;48.314;11.562;2022-11-12T11:06:57;22.40;70.60
1956;DHT22;978;48.314;11.562;2022-11-12T11:09:24;22.40;70.50
1956;DHT22;978;48.314;11.562;2022-11-12T11:11:52;22.40;70.60
1956;DHT22;978;48.314;11.562;2022-11-12T11:14:27;22.40;70.50
1956;DHT22;978;48.314;11.562;2022-11-12T11:16:58;22.40;70.50
1956;DHT22;978;48.314;11.562;2022-11-12T11:19:35;22.40;70.50
1956;DHT22;978;48.314;11.562;2022-11-12T11:25:06;22.40;70.50
1956;DHT22;978;48.314;11.562;2022-11-12T11:28:06;22.40;70.50
1956;DHT22;978;48.314;11.562;2022-11-12T11:30:47;22.40;70.60
1956;DHT22;978;48.314;11.562;2022-11-12T11:33:29;22.40;70.50
1956;DHT22;978;48.314;11.562;2022-11-12T11:36:06;22.40;70.60
1956;DHT22;978;48.314;11.562;2022-11-12T11:38:45;22.40;70.60
1956;DHT22;978;48.314;11.562;2022-11-12T11:41:33;22.40;70.60
1956;DHT22;978;48.314;11.562;2022-11-12T11:44:09;22.40;70.70
1956;DHT22;978;48.314;11.562;2022-11-12T11:46:52;22.40;70.60
1956;DHT22;978;48.314;11.562;2022-11-12T11:49:47;22.40;70.70
1956;DHT22;978;48.314;11.562;2022-11-12T11:52:43;22.40;70.80
1956;DHT22;978;48.314;11.562;2022-11-12T11:55:29;22.40;70.90
1956;DHT22;978;48.314;11.562;2022-11-12T11:58:05;22.40;70.90
1956;DHT22;978;48.314;11.562;2022-11-12T12:00:43;22.40;70.90
1956;DHT22;978;48.314;11.562;2022-11-12T12:03:23;22.40;71.00
1956;DHT22;978;48.314;11.562;2022-11-12T12:06:14;22.40;71.60
1956;DHT22;978;48.314;11.562;2022-11-12T12:08:58;22.40;71.10
1956;DHT22;978;48.314;11.562;2022-11-12T12:11:33;22.40;71.20
1956;DHT22;978;48.314;11.562;2022-11-12T12:14:15;22.40;71.20
1956;DHT22;978;48.314;11.562;2022-11-12T12:16:51;22.40;71.30
1956;DHT22;978;48.314;11.562;2022-11-12T12:19:31;22.40;71.40
1956;DHT22;978;48.314;11.562;2022-11-12T12:22:03;22.40;71.50
1956;DHT22;978;48.314;11.562;2022-11-12T12:24:40;22.40;71.50
1956;DHT22;978;48.314;11.562;2022-11-12T12:27:12;22.40;71.60
1956;DHT22;978;48.314;11.562;2022-11-12T12:29:44;22.40;71.70
1956;DHT22;978;48.314;11.562;2022-11-12T12:32:17;22.40;71.70
1956;DHT22;978;48.314;11.562;2022-11-12T12:34:51;22.40;71.80
1956;DHT22;978;48.314;11.562;2022-11-12T12:37:25;22.40;71.80
1956;DHT22;978;48.314;11.562;2022-11-12T12:39:58;22.40;71.80
1956;DHT22;978;48.314;11.562;2022-11-12T12:42:33;22.40;71.90
1956;DHT22;978;48.314;11.562;2022-11-12T12:45:29;22.40;71.90
1956;DHT22;978;48.314;11.562;2022-11-12T12:47:59;22.40;71.90
1956;DHT22;978;48.314;11.562;2022-11-12T12:50:28;22.40;72.00
1956;DHT22;978;48.314;11.562;2022-11-12T12:53:03;22.40;72.00
1956;DHT22;978;48.314;11.562;2022-11-12T12:55:37;22.40;72.00
1956;DHT22;978;48.314;11.562;2022-11-12T12:58:07;22.40;72.00
1956;DHT22;978;48.314;11.562;2022-11-12T13:00:46;22.40;72.00
1956;DHT22;978;48.314;11.562;2022-11-12T13:06:28;22.40;72.00
1956;DHT22;978;48.314;11.562;2022-11-12T13:08:58;22.40;72.10
1956;DHT22;978;48.314;11.562;2022-11-12T13:11:47;22.40;72.10
1956;DHT22;978;48.314;11.562;2022-11-12T13:14:52;22.40;72.10
1956;DHT22;978;48.314;11.562;2022-11-12T13:17:41;22.40;72.10
1956;DHT22;978;48.314;11.562;2022-11-12T13:20:33;22.40;72.10
1956;DHT22;978;48.314;11.562;2022-11-12T13:23:02;22.40;72.10
1956;DHT22;978;48.314;11.562;2022-11-12T13:25:30;22.40;72.10
1956;DHT22;978;48.314;11.562;2022-11-12T13:28:08;22.40;72.20
1956;DHT22;978;48.314;11.562;2022-11-12T13:30:55;22.40;72.20
1956;DHT22;978;48.314;11.562;2022-11-12T13:33:27;22.40;72.10
1956;DHT22;978;48.314;11.562;2022-11-12T13:36:17;22.40;72.10
1956;DHT22;978;48.314;11.562;2022-11-12T13:38:50;22.40;72.10
1956;DHT22;978;48.314;11.562;2022-11-12T13:41:20;22.40;72.10
1956;DHT22;978;48.314;11.562;2022-11-12T13:44:13;22.40;72.20
1956;DHT22;978;48.314;11.562;2022-11-12T13:46:42;22.40;72.20
1956;DHT22;978;48.314;11.562;2022-11-12T13:49:12;22.40;72.30
1956;DHT22;978;48.314;11.562;2022-11-12T13:51:41;22.40;72.20
1956;DHT22;978;48.314;11.562;2022-11-12T13:54:34;22.40;72.20
1956;DHT22;978;48.314;11.562;2022-11-12T13:57:27;22.40;72.30
1956;DHT22;978;48.314;11.562;2022-11-12T14:00:21;22.40;72.30
1956;DHT22;978;48.314;11.562;2022-11-12T14:02:51;22.40;72.30
1956;DHT22;978;48.314;11.562;2022-11-12T14:05:20;22.40;72.20
1956;DHT22;978;48.314;11.562;2022-11-12T14:07:59;22.40;72.30
1956;DHT22;978;48.314;11.562;2022-11-12T14:10:36;22.40;72.30
1956;DHT22;978;48.314;11.562;2022-11-12T14:13:21;22.40;72.20
1956;DHT22;978;48.314;11.562;2022-11-12T14:16:01;22.40;72.30
1956;DHT22;978;48.314;11.562;2022-11-12T14:18:42;22.40;72.30
1956;DHT22;978;48.314;11.562;2022-11-12T14:21:15;22.40;72.30
1956;DHT22;978;48.314;11.562;2022-11-12T14:23:43;22.40;72.20
1956;DHT22;978;48.314;11.562;2022-11-12T14:26:32;22.40;72.30
1956;DHT22;978;48.314;11.562;2022-11-12T14:28:59;22.40;72.20
1956;DHT22;978;48.314;11.562;2022-11-12T14:31:26;22.40;72.20
1956;DHT22;978;48.314;11.562;2022-11-12T14:33:54;22.40;72.30
1956;DHT22;978;48.314;11.562;2022-11-12T14:36:21;22.40;72.30
1956;DHT22;978;48.314;11.562;2022-11-12T14:38:51;22.40;72.30
1956;DHT22;978;48.314;11.562;2022-11-12T14:41:21;22.40;72.30
1956;DHT22;978;48.314;11.562;2022-11-12T14:43:52;22.40;72.30
1956;DHT22;978;48.314;11.562;2022-11-12T14:46:22;22.40;72.30
1956;DHT22;978;48.314;11.562;2022-11-12T14:48:55;22.40;72.30
1956;DHT22;978;48.314;11.562;2022-11-12T14:51:24;22.40;72.30
1956;DHT22;978;48.314;11.562;2022-11-12T14:53:56;22.40;72.30
1956;DHT22;978;48.314;11.562;2022-11-12T14:56:30;22.40;72.30
1956;DHT22;978;48.314;11.562;2022-11-12T14:58:58;22.40;72.30
1956;DHT22;978;48.314;11.562;2022-11-12T15:01:27;22.40;72.30
1956;DHT22;978;48.314;11.562;2022-11-12T15:04:16;22.40;72.00
1956;DHT22;978;48.314;11.562;2022-11-12T15:06:50;22.40;72.20
1956;DHT22;978;48.314;11.562;2022-11-12T15:09:18;22.40;72.30
1956;DHT22;978;48.314;11.562;2022-11-12T15:11:58;22.40;72.30
1956;DHT22;978;48.314;11.562;2022-11-12T15:14:25;22.40;72.20
1956;DHT22;978;48.314;11.562;2022-11-12T15:16:52;22.40;72.20
1956;DHT22;978;48.314;11.562;2022-11-12T15:19:20;22.40;72.20
1956;DHT22;978;48.314;11.562;2022-11-12T15:21:50;22.40;72.20
1956;DHT22;978;48.314;11.562;2022-11-12T15:24:26;22.40;72.20
1956;DHT22;978;48.314;11.562;2022-11-12T15:26:56;22.40;72.10
1956;DHT22;978;48.314;11.562;2022-11-12T15:29:29;22.40;72.10
1956;DHT22;978;48.314;11.562;2022-11-12T15:31:58;22.40;72.20
1956;DHT22;978;48.314;11.562;2022-11-12T15:34:31;22.40;72.10
1956;DHT22;978;48.314;11.562;2022-11-12T15:37:02;22.40;72.10
1956;DHT22;978;48.314;11.562;2022-11-12T15:39:32;22.40;72.20
1956;DHT22;978;48.314;11.562;2022-11-12T15:42:02;22.40;72.20
1956;DHT22;978;48.314;11.562;2022-11-12T15:44:33;22.40;72.20
1956;DHT22;978;48.314;11.562;2022-11-12T15:47:02;22.40;72.20
1956;DHT22;978;48.314;11.562;2022-11-12T15:49:29;22.40;72.10
1956;DHT22;978;48.314;11.562;2022-11-12T15:51:56;22.40;72.00
1956;DHT22;978;48.314;11.562;2022-11-12T15:54:22;22.40;72.00
1956;DHT22;978;48.314;11.562;2022-11-12T15:56:49;22.40;72.00
1956;DHT22;978;48.314;11.562;2022-11-12T15:59:17;22.40;72.10
1956;DHT22;978;48.314;11.562;2022-11-12T16:01:45;22.40;72.00
1956;DHT22;978;48.314;11.562;2022-11-12T16:04:12;22.40;72.00
1956;DHT22;978;48.314;11.562;2022-11-12T16:06:39;22.40;72.00
1956;DHT22;978;48.314;11.562;2022-11-12T16:09:08;22.40;72.00
1956;DHT22;978;48.314;11.562;2022-11-12T16:11:35;22.40;72.00
1956;DHT22;978;48.314;11.562;2022-11-12T16:14:03;22.40;71.90
1956;DHT22;978;48.314;11.562;2022-11-12T16:16:31;22.40;71.90
1956;DHT22;978;48.314;11.562;2022-11-12T16:18:59;22.40;71.90
1956;DHT22;978;48.314;11.562;2022-11-12T16:21:26;22.40;71.90
1956;DHT22;978;48.314;11.562;2022-11-12T16:23:54;22.30;71.90
1956;DHT22;978;48.314;11.562;2022-11-12T16:26:24;22.40;71.90
1956;DHT22;978;48.314;11.562;2022-11-12T16:28:53;22.40;71.90
1956;DHT22;978;48.314;11.562;2022-11-12T16:31:20;22.40;71.90
1956;DHT22;978;48.314;11.562;2022-11-12T16:33:48;22.40;71.80